createdAt,value
2023-04-15T00:01:19.493Z,9.54
2023-04-15T00:08:57.208Z,9.50
2023-04-15T00:13:58.697Z,9.46
2023-04-15T00:16:26.859Z,9.50
2023-04-15T00:18:54.864Z,9.50
2023-04-15T00:21:22.937Z,9.50
2023-04-15T00:23:53.767Z,9.44
2023-04-15T00:26:22.409Z,9.50
2023-04-15T00:28:50.623Z,9.32
2023-04-15T00:31:18.789Z,9.40
2023-04-15T00:33:47.935Z,9.32
2023-04-15T00:36:16.062Z,9.40
2023-04-15T00:38:44.209Z,9.44
2023-04-15T00:41:12.965Z,9.50
2023-04-15T00:43:41.193Z,9.50
2023-04-15T00:46:09.538Z,9.36
2023-04-15T00:48:39.001Z,9.32
2023-04-15T00:51:07.796Z,9.30
2023-04-15T00:53:35.984Z,9.28
2023-04-15T00:58:37.300Z,9.30
2023-04-15T01:01:05.534Z,9.40
2023-04-15T01:03:34.663Z,9.40
2023-04-15T01:06:03.994Z,9.30
2023-04-15T01:08:32.378Z,9.26
2023-04-15T01:11:02.300Z,9.30
2023-04-15T01:13:30.976Z,9.40
2023-04-15T01:15:59.193Z,9.50
2023-04-15T01:18:28.684Z,9.28
2023-04-15T01:20:56.728Z,9.20
2023-04-15T01:23:26.448Z,9.20
2023-04-15T01:25:54.503Z,9.30
2023-04-15T01:28:22.554Z,9.18
2023-04-15T01:30:50.690Z,9.08
2023-04-15T01:33:18.756Z,9.10
2023-04-15T01:35:47.915Z,9.18
2023-04-15T01:38:16.498Z,9.30
2023-04-15T01:40:46.090Z,9.46
2023-04-15T01:43:14.062Z,9.44
2023-04-15T01:45:43.900Z,9.30
2023-04-15T01:48:12.494Z,9.30
2023-04-15T01:50:40.584Z,9.40
2023-04-15T01:53:08.718Z,9.40
2023-04-15T01:55:37.192Z,9.40
2023-04-15T01:58:05.181Z,9.40
2023-04-15T02:00:33.474Z,9.40
2023-04-15T02:03:01.644Z,9.30
2023-04-15T02:05:29.746Z,9.30
2023-04-15T02:07:58.064Z,9.30
2023-04-15T02:10:26.342Z,9.30
2023-04-15T02:12:54.377Z,9.20
2023-04-15T02:15:23.189Z,9.28
2023-04-15T02:17:52.787Z,9.20
2023-04-15T02:20:21.509Z,9.10
2023-04-15T02:22:49.631Z,9.00
2023-04-15T02:25:17.885Z,9.10
2023-04-15T02:27:45.912Z,9.04
2023-04-15T02:30:14.065Z,9.02
2023-04-15T02:32:45.292Z,8.92
2023-04-15T02:35:13.918Z,8.92
2023-04-15T02:37:44.078Z,8.90
2023-04-15T02:40:13.177Z,8.90
2023-04-15T02:42:41.597Z,8.90
2023-04-15T02:45:13.040Z,8.80
2023-04-15T02:47:41.862Z,8.80
2023-04-15T02:50:12.682Z,8.70
2023-04-15T02:52:42.106Z,8.70
2023-04-15T02:55:10.572Z,8.68
2023-04-15T02:57:39.441Z,8.60
2023-04-15T03:00:11.556Z,8.62
2023-04-15T03:02:42.452Z,8.54
2023-04-15T03:05:14.204Z,8.50
2023-04-15T03:07:47.279Z,8.50
2023-04-15T03:10:15.677Z,8.50
2023-04-15T03:12:43.787Z,8.54
2023-04-15T03:15:15.754Z,8.54
2023-04-15T03:17:46.049Z,8.50
2023-04-15T03:20:14.476Z,8.50
2023-04-15T03:22:42.532Z,8.50
2023-04-15T03:25:10.802Z,8.50
2023-04-15T03:27:39.021Z,8.46
2023-04-15T03:30:07.942Z,8.44
2023-04-15T03:32:38.080Z,8.32
2023-04-15T03:35:08.405Z,8.40
2023-04-15T03:37:36.940Z,8.36
2023-04-15T03:40:05.641Z,8.30
2023-04-15T03:42:33.661Z,8.20
2023-04-15T03:45:01.721Z,8.16
2023-04-15T03:47:29.766Z,8.10
2023-04-15T03:49:57.821Z,8.10
2023-04-15T03:52:26.143Z,8.20
2023-04-15T03:54:54.167Z,8.10
2023-04-15T03:57:22.190Z,8.10
2023-04-15T03:59:50.246Z,8.10
2023-04-15T04:02:18.444Z,8.10
2023-04-15T04:04:46.542Z,8.00
2023-04-15T04:07:18.237Z,7.94
2023-04-15T04:09:47.402Z,8.00
2023-04-15T04:12:15.829Z,7.94
2023-04-15T04:14:43.980Z,8.02
2023-04-15T04:17:12.054Z,7.96
2023-04-15T04:19:40.329Z,7.90
2023-04-15T04:22:08.268Z,7.80
2023-04-15T04:24:36.514Z,7.90
2023-04-15T04:27:05.654Z,7.90
2023-04-15T04:29:33.711Z,8.04
2023-04-15T04:32:01.824Z,8.20
2023-04-15T04:34:30.338Z,8.38
2023-04-15T04:36:58.439Z,8.40
2023-04-15T04:39:26.578Z,8.40
2023-04-15T04:41:54.535Z,8.40
2023-04-15T04:44:22.658Z,8.46
2023-04-15T04:46:50.708Z,8.50
2023-04-15T04:49:18.767Z,8.60
2023-04-15T04:51:48.514Z,8.70
2023-04-15T04:54:17.147Z,8.80
2023-04-15T04:56:45.126Z,8.90
2023-04-15T04:59:13.340Z,8.90
2023-04-15T05:01:42.095Z,8.90
2023-04-15T05:04:10.377Z,8.94
2023-04-15T05:06:38.542Z,9.00
2023-04-15T05:09:06.685Z,8.90
2023-04-15T05:11:34.703Z,8.90
2023-04-15T05:14:02.740Z,8.90
2023-04-15T05:16:30.984Z,8.90
2023-04-15T05:18:59.159Z,9.00
2023-04-15T05:21:27.770Z,9.08
2023-04-15T05:23:56.010Z,9.14
2023-04-15T05:26:24.462Z,9.20
2023-04-15T05:28:52.501Z,9.30
2023-04-15T05:31:20.589Z,9.40
2023-04-15T05:33:48.730Z,9.50
2023-04-15T05:36:16.743Z,9.52
2023-04-15T05:38:44.960Z,9.60
2023-04-15T05:41:13.235Z,9.70
2023-04-15T05:43:41.715Z,9.78
2023-04-15T05:46:09.725Z,9.74
2023-04-15T05:48:37.785Z,9.80
2023-04-15T05:51:06.512Z,9.92
2023-04-15T05:53:34.515Z,10.00
2023-04-15T05:56:02.608Z,10.08
2023-04-15T05:58:30.649Z,10.18
2023-04-15T06:00:58.812Z,10.20
2023-04-15T06:03:27.079Z,10.18
2023-04-15T06:05:55.667Z,9.90
2023-04-15T06:08:23.757Z,9.90
2023-04-15T06:10:51.876Z,9.80
2023-04-15T06:13:19.905Z,9.90
2023-04-15T06:15:48.288Z,10.00
2023-04-15T06:18:16.272Z,10.10
2023-04-15T06:20:44.519Z,10.10
2023-04-15T06:23:12.588Z,10.10
2023-04-15T06:25:40.729Z,10.20
2023-04-15T06:28:08.882Z,10.20
2023-04-15T06:30:36.927Z,10.30
2023-04-15T06:33:06.420Z,10.86
2023-04-15T06:35:34.563Z,11.42
2023-04-15T06:38:02.739Z,11.40
2023-04-15T06:40:31.341Z,11.74
2023-04-15T06:42:59.481Z,11.96
2023-04-15T06:45:27.513Z,12.00
2023-04-15T06:47:58.226Z,12.10
2023-04-15T06:50:26.674Z,12.24
2023-04-15T06:52:55.584Z,12.60
2023-04-15T06:55:23.617Z,13.56
2023-04-15T06:57:51.664Z,13.60
2023-04-15T07:00:20.403Z,13.50
2023-04-15T07:02:48.732Z,13.28
2023-04-15T07:05:16.939Z,12.98
2023-04-15T07:07:45.443Z,12.78
2023-04-15T07:10:15.444Z,12.68
2023-04-15T07:12:43.610Z,12.50
2023-04-15T07:15:12.204Z,12.26
2023-04-15T07:17:41.974Z,12.40
2023-04-15T07:20:10.521Z,12.46
2023-04-15T07:22:38.870Z,13.52
2023-04-15T07:25:07.754Z,14.02
2023-04-15T07:27:36.368Z,14.68
2023-04-15T07:30:04.906Z,15.38
2023-04-15T07:32:32.954Z,16.26
2023-04-15T07:35:02.282Z,17.20
2023-04-15T07:37:30.399Z,18.06
2023-04-15T07:39:58.592Z,18.70
2023-04-15T07:42:26.643Z,19.38
2023-04-15T07:44:54.844Z,19.80
2023-04-15T07:47:22.932Z,20.00
2023-04-15T07:49:51.586Z,19.60
2023-04-15T07:57:25.491Z,19.30
2023-04-15T07:59:53.892Z,19.02
2023-04-15T08:02:22.484Z,18.58
2023-04-15T08:04:50.821Z,18.18
2023-04-15T08:07:19.070Z,17.90
2023-04-15T08:09:47.091Z,17.64
2023-04-15T08:12:16.034Z,17.30
2023-04-15T08:14:44.001Z,17.30
2023-04-15T08:22:19.284Z,17.04
2023-04-15T08:24:48.303Z,17.00
2023-04-15T08:27:16.420Z,17.00
2023-04-15T08:29:45.667Z,16.72
2023-04-15T08:32:25.415Z,16.66
2023-04-15T08:34:53.639Z,16.38
2023-04-15T08:37:23.049Z,16.18
2023-04-15T08:39:51.045Z,16.22
2023-04-15T08:42:21.409Z,16.40
2023-04-15T08:44:49.408Z,16.28
2023-04-15T08:47:17.717Z,16.66
2023-04-15T08:49:45.862Z,16.60
2023-04-15T08:54:48.115Z,17.66
2023-04-15T08:57:16.158Z,18.22
2023-04-15T09:02:17.589Z,20.42
2023-04-15T09:04:45.812Z,21.54
2023-04-15T09:07:13.892Z,22.18
2023-04-15T09:09:42.321Z,21.18
2023-04-15T09:12:11.695Z,20.24
2023-04-15T09:14:42.414Z,19.74
2023-04-15T09:17:10.628Z,19.34
2023-04-15T09:19:38.828Z,19.10
2023-04-15T09:22:06.997Z,19.00
2023-04-15T09:24:39.437Z,19.62
2023-04-15T09:27:07.660Z,20.54
2023-04-15T09:29:35.855Z,20.42
2023-04-15T09:32:11.485Z,20.58
2023-04-15T09:34:39.498Z,20.90
2023-04-15T09:37:08.091Z,20.68
2023-04-15T09:39:47.253Z,20.36
2023-04-15T09:42:15.853Z,20.00
2023-04-15T09:44:44.322Z,20.20
2023-04-15T09:47:30.252Z,20.34
2023-04-15T09:49:59.312Z,20.16
2023-04-15T09:52:29.010Z,19.90
2023-04-15T09:54:58.460Z,19.86
2023-04-15T09:57:34.349Z,20.00
2023-04-15T10:00:08.325Z,19.96
2023-04-15T10:02:38.509Z,20.58
2023-04-15T10:05:07.390Z,20.44
2023-04-15T10:07:35.408Z,19.58
2023-04-15T10:10:04.532Z,20.22
2023-04-15T10:12:33.669Z,20.16
2023-04-15T10:15:07.334Z,20.36
2023-04-15T10:17:35.699Z,21.22
2023-04-15T10:20:05.184Z,21.98
2023-04-15T10:22:33.559Z,22.64
2023-04-15T10:25:02.276Z,23.04
2023-04-15T10:27:30.628Z,23.40
2023-04-15T10:29:58.719Z,23.26
2023-04-15T10:32:27.201Z,23.06
2023-04-15T10:34:55.409Z,22.24
2023-04-15T10:37:33.311Z,23.34
2023-04-15T10:40:01.430Z,24.22
2023-04-15T10:42:34.428Z,24.46
2023-04-15T10:45:02.547Z,25.14
2023-04-15T10:57:54.311Z,23.68
2023-04-15T11:00:25.918Z,24.14
2023-04-15T11:03:06.761Z,23.84
2023-04-15T11:09:06.068Z,23.48
2023-04-15T11:12:05.855Z,22.84
2023-04-15T11:14:35.889Z,22.20
2023-04-15T11:17:04.378Z,22.64
2023-04-15T11:19:39.084Z,22.98
2023-04-15T11:22:08.793Z,22.72
2023-04-15T11:24:37.369Z,23.38
2023-04-15T11:27:05.465Z,23.70
2023-04-15T11:29:33.464Z,23.24
2023-04-15T11:32:09.281Z,22.74
2023-04-15T11:34:37.427Z,21.68
2023-04-15T11:37:06.525Z,20.82
2023-04-15T11:39:34.552Z,20.54
2023-04-15T11:42:02.787Z,19.92
2023-04-15T11:44:30.870Z,20.24
2023-04-15T11:46:58.953Z,21.08
2023-04-15T11:49:31.330Z,22.14
2023-04-15T11:54:33.545Z,22.18
2023-04-15T11:57:02.874Z,22.50
2023-04-15T11:59:45.281Z,22.84
2023-04-15T12:02:14.466Z,22.70
2023-04-15T12:04:42.962Z,21.34
2023-04-15T12:07:12.670Z,20.16
2023-04-15T12:22:29.485Z,22.66
2023-04-15T12:24:57.861Z,23.84
2023-04-15T12:37:43.293Z,24.68
2023-04-15T12:47:51.190Z,25.26
2023-04-15T12:55:25.442Z,24.56
2023-04-15T12:57:53.772Z,25.50
2023-04-15T13:00:21.933Z,25.22
2023-04-15T13:02:50.010Z,24.04
2023-04-15T13:05:18.295Z,23.60
2023-04-15T13:07:46.478Z,23.58
2023-04-15T13:10:14.612Z,23.64
2023-04-15T13:12:42.635Z,23.24
2023-04-15T13:15:12.023Z,23.04
2023-04-15T13:17:40.078Z,22.80
2023-04-15T13:20:09.656Z,22.38
2023-04-15T13:22:37.759Z,21.02
2023-04-15T13:25:07.428Z,20.40
2023-04-15T13:27:35.560Z,19.80
2023-04-15T13:30:04.428Z,19.28
2023-04-15T13:32:32.423Z,19.20
2023-04-15T13:35:00.441Z,19.08
2023-04-15T13:37:28.733Z,19.02
2023-04-15T13:39:57.292Z,19.18
2023-04-15T13:42:25.547Z,19.34
2023-04-15T13:44:53.666Z,19.34
2023-04-15T13:47:22.020Z,19.18
2023-04-15T13:49:50.186Z,19.30
2023-04-15T13:52:18.159Z,19.62
2023-04-15T13:54:47.491Z,20.16
2023-04-15T13:57:35.545Z,19.84
2023-04-15T14:00:04.728Z,19.42
2023-04-15T14:02:34.534Z,18.90
2023-04-15T14:05:02.546Z,18.68
2023-04-15T14:07:30.973Z,18.86
2023-04-15T14:09:59.153Z,19.00
2023-04-15T14:12:27.375Z,18.60
2023-04-15T14:14:55.556Z,18.20
2023-04-15T14:17:23.650Z,17.80
2023-04-15T14:19:51.738Z,17.46
2023-04-15T14:22:19.726Z,17.36
2023-04-15T14:24:49.258Z,17.22
2023-04-15T14:27:17.242Z,17.10
2023-04-15T14:29:45.256Z,17.00
2023-04-15T14:32:14.429Z,17.16
2023-04-15T14:34:44.138Z,17.10
2023-04-15T14:37:12.266Z,17.06
2023-04-15T14:39:40.859Z,17.20
2023-04-15T14:42:08.836Z,17.00
2023-04-15T14:44:36.927Z,17.20
2023-04-15T14:47:05.031Z,17.00
2023-04-15T14:49:32.977Z,17.16
2023-04-15T14:52:01.142Z,17.10
2023-04-15T14:54:29.157Z,17.18
2023-04-15T14:56:57.369Z,17.22
2023-04-15T14:59:25.532Z,17.22
2023-04-15T15:01:53.795Z,17.10
2023-04-15T15:04:21.929Z,16.90
2023-04-15T15:06:50.029Z,16.92
2023-04-15T15:09:19.811Z,17.06
2023-04-15T15:11:47.920Z,16.94
2023-04-15T15:14:15.930Z,16.86
2023-04-15T15:16:44.052Z,16.72
2023-04-15T15:19:12.017Z,15.40
2023-04-15T15:21:40.294Z,13.50
2023-04-15T15:24:08.320Z,13.20
2023-04-15T15:26:36.316Z,12.90
2023-04-15T15:29:04.660Z,12.66
2023-04-15T15:31:34.953Z,12.54
2023-04-15T15:34:03.937Z,12.40
2023-04-15T15:36:32.017Z,12.46
2023-04-15T15:39:00.261Z,12.66
2023-04-15T15:41:28.302Z,12.96
2023-04-15T15:43:56.492Z,13.34
2023-04-15T15:46:25.060Z,13.60
2023-04-15T15:48:53.193Z,13.92
2023-04-15T15:51:21.287Z,14.10
2023-04-15T15:53:49.404Z,14.34
2023-04-15T15:56:17.468Z,14.50
2023-04-15T15:58:45.581Z,14.60
2023-04-15T16:01:13.782Z,14.56
2023-04-15T16:03:41.885Z,14.70
2023-04-15T16:06:09.959Z,14.84
2023-04-15T16:11:10.902Z,14.94
2023-04-15T16:13:38.873Z,14.94
2023-04-15T16:16:07.227Z,15.10
2023-04-15T16:18:35.609Z,15.10
2023-04-15T16:21:03.756Z,15.22
2023-04-15T16:23:31.759Z,15.20
2023-04-15T16:25:59.892Z,15.10
2023-04-15T16:28:27.982Z,15.10
2023-04-15T16:30:57.135Z,15.20
2023-04-15T16:38:31.507Z,15.16
2023-04-15T16:41:00.179Z,15.08
2023-04-15T16:43:28.470Z,14.90
2023-04-15T16:45:56.529Z,14.80
2023-04-15T16:48:24.737Z,14.70
2023-04-15T16:50:52.751Z,14.70
2023-04-15T16:53:20.889Z,14.60
2023-04-15T16:58:21.863Z,14.60
2023-04-15T17:03:23.859Z,14.48
2023-04-15T17:05:52.002Z,14.40
2023-04-15T17:08:20.038Z,14.30
2023-04-15T17:10:48.110Z,14.20
2023-04-15T17:13:16.176Z,14.18
2023-04-15T17:20:50.657Z,13.92
2023-04-15T17:25:51.709Z,13.80
2023-04-15T17:28:19.716Z,13.80
2023-04-15T17:30:47.762Z,13.70
2023-04-15T17:33:58.852Z,13.60
2023-04-15T17:36:03.782Z,13.44
2023-04-15T17:41:05.677Z,13.30
2023-04-15T17:43:33.908Z,13.22
2023-04-15T17:46:01.970Z,13.20
2023-04-15T17:48:29.997Z,13.20
2023-04-15T17:50:58.160Z,13.20
2023-04-15T17:53:26.198Z,13.20
2023-04-15T17:55:54.380Z,13.20
2023-04-15T17:58:22.310Z,13.20
2023-04-15T18:00:50.562Z,13.20
2023-04-15T18:03:18.678Z,13.20
2023-04-15T18:05:46.798Z,13.20
2023-04-15T18:08:14.934Z,13.16
2023-04-15T18:10:42.944Z,13.10
2023-04-15T18:13:10.946Z,13.12
2023-04-15T18:15:39.000Z,13.10
2023-04-15T18:18:07.076Z,13.08
2023-04-15T18:20:35.336Z,13.10
2023-04-15T18:23:03.345Z,13.10
2023-04-15T18:25:32.017Z,13.10
2023-04-15T18:28:00.193Z,13.10
2023-04-15T18:30:28.250Z,13.10
2023-04-15T18:32:56.575Z,13.10
2023-04-15T18:35:24.848Z,13.10
2023-04-15T18:37:53.125Z,13.06
2023-04-15T18:40:21.213Z,13.00
2023-04-15T18:42:49.314Z,13.00
2023-04-15T18:45:17.408Z,13.00
2023-04-15T18:47:45.628Z,13.00
2023-04-15T18:50:13.622Z,13.00
2023-04-15T18:52:41.697Z,13.00
2023-04-15T18:55:09.698Z,13.00
2023-04-15T18:57:42.566Z,13.00
2023-04-15T19:00:13.403Z,13.00
2023-04-15T19:02:42.377Z,13.00
2023-04-15T19:05:10.679Z,12.90
2023-04-15T19:07:38.784Z,12.90
2023-04-15T19:10:07.334Z,12.90
2023-04-15T19:12:36.610Z,12.70
2023-04-15T19:15:05.106Z,12.60
2023-04-15T19:17:33.311Z,12.48
2023-04-15T19:20:01.662Z,12.40
2023-04-15T19:22:29.876Z,12.30
2023-04-15T19:24:58.100Z,12.22
2023-04-15T19:27:26.957Z,12.20
2023-04-15T19:29:54.972Z,12.20
2023-04-15T19:32:23.192Z,12.36
2023-04-15T19:34:51.372Z,12.42
2023-04-15T19:37:19.511Z,12.42
2023-04-15T19:39:47.602Z,12.40
2023-04-15T19:42:15.697Z,12.40
2023-04-15T19:44:43.851Z,12.50
2023-04-15T19:47:11.944Z,12.50
2023-04-15T19:49:40.589Z,12.48
2023-04-15T19:52:08.606Z,12.50
2023-04-15T19:54:36.998Z,12.60
2023-04-15T19:57:05.294Z,12.60
2023-04-15T19:59:33.750Z,12.70
2023-04-15T20:02:02.153Z,12.70
2023-04-15T20:04:30.456Z,12.70
2023-04-15T20:06:58.574Z,12.70
2023-04-15T20:09:26.675Z,12.60
2023-04-15T20:12:46.637Z,12.60
2023-04-15T20:14:43.036Z,12.50
2023-04-15T20:17:11.210Z,12.40
2023-04-15T20:19:39.293Z,12.50
2023-04-15T20:22:07.467Z,12.42
2023-04-15T20:24:35.535Z,12.40
2023-04-15T20:27:04.065Z,12.32
2023-04-15T20:29:32.332Z,12.30
2023-04-15T20:32:00.502Z,12.20
2023-04-15T20:34:28.627Z,12.20
2023-04-15T20:36:57.023Z,12.20
2023-04-15T20:39:25.329Z,12.10
2023-04-15T20:41:53.387Z,12.04
2023-04-15T20:44:21.494Z,11.90
2023-04-15T20:46:49.593Z,11.88
2023-04-15T20:49:17.848Z,11.80
2023-04-15T20:51:46.138Z,11.80
2023-04-15T20:54:14.840Z,11.76
2023-04-15T20:56:42.891Z,11.80
2023-04-15T20:59:10.909Z,11.80
2023-04-15T21:01:40.253Z,11.70
2023-04-15T21:04:08.511Z,11.58
2023-04-15T21:06:36.560Z,11.50
2023-04-15T21:09:04.935Z,11.50
2023-04-15T21:11:53.121Z,11.50
2023-04-15T21:14:21.313Z,11.48
2023-04-15T21:16:49.319Z,11.40
2023-04-15T21:19:17.534Z,11.40
2023-04-15T21:21:45.678Z,11.50
2023-04-15T21:24:13.802Z,11.50
2023-04-15T21:26:41.830Z,11.48
2023-04-15T21:29:11.573Z,11.50
2023-04-15T21:31:40.401Z,11.50
2023-04-15T21:34:08.648Z,11.48
2023-04-15T21:36:37.473Z,11.34
2023-04-15T21:39:06.229Z,11.30
2023-04-15T21:41:34.464Z,11.20
2023-04-15T21:44:03.370Z,11.16
2023-04-15T21:46:32.758Z,11.12
2023-04-15T21:49:01.470Z,11.00
2023-04-15T21:51:29.562Z,10.90
2023-04-15T21:53:57.655Z,10.80
2023-04-15T21:56:26.061Z,10.80
2023-04-15T22:01:29.952Z,10.70
2023-04-15T22:03:58.180Z,10.68
2023-04-15T22:06:27.187Z,10.60
2023-04-15T22:08:57.798Z,10.60
2023-04-15T22:11:30.540Z,10.40
2023-04-15T22:13:58.989Z,10.30
2023-04-15T22:16:27.409Z,10.30
2023-04-15T22:18:55.824Z,10.30
2023-04-15T22:21:23.989Z,10.32
2023-04-15T22:23:52.040Z,10.20
2023-04-15T22:26:20.029Z,10.18
2023-04-15T22:28:48.243Z,9.98
2023-04-15T22:31:16.372Z,9.86
2023-04-15T22:33:44.377Z,9.80
2023-04-15T22:36:13.633Z,9.80
2023-04-15T22:38:41.825Z,9.70
2023-04-15T22:41:09.901Z,9.62
2023-04-15T22:43:37.975Z,9.70
2023-04-15T22:46:06.093Z,9.60
2023-04-15T22:48:35.001Z,9.60
2023-04-15T22:51:04.012Z,9.52
2023-04-15T22:53:32.036Z,9.60
2023-04-15T22:56:00.128Z,9.60
2023-04-15T22:58:28.127Z,9.50
2023-04-15T23:00:56.309Z,9.40
2023-04-15T23:03:24.753Z,9.30
2023-04-15T23:05:53.063Z,9.30
2023-04-15T23:08:21.230Z,9.30
2023-04-15T23:10:50.410Z,9.30
2023-04-15T23:13:18.379Z,9.30
2023-04-15T23:15:46.401Z,9.30
2023-04-15T23:18:14.416Z,9.30
2023-04-15T23:20:42.399Z,9.20
2023-04-15T23:23:10.368Z,9.12
2023-04-15T23:25:38.461Z,9.10
2023-04-15T23:28:06.468Z,9.10
2023-04-15T23:30:34.462Z,9.10
2023-04-15T23:33:02.631Z,9.10
2023-04-15T23:35:30.848Z,9.20
2023-04-15T23:37:58.822Z,9.10
2023-04-15T23:40:26.816Z,9.00
2023-04-15T23:42:54.775Z,8.90
2023-04-15T23:45:22.886Z,8.90
2023-04-15T23:47:50.858Z,8.90
2023-04-15T23:50:19.120Z,8.80
2023-04-15T23:52:47.118Z,8.82
2023-04-15T23:55:15.213Z,8.80
2023-04-15T23:57:43.302Z,8.90
